sensor_id;sensor_type;location;lat;lon;timestamp;P1;durP1;ratioP1;P2;durP2;ratioP2
10341;SDS011;5216;54.602;18.356;2023-02-26T00:00:07;1.73;;;1.10;;
10341;SDS011;5216;54.602;18.356;2023-02-26T00:02:37;1.23;;;1.10;;
10341;SDS011;5216;54.602;18.356;2023-02-26T00:05:04;2.03;;;1.40;;
10341;SDS011;5216;54.602;18.356;2023-02-26T00:07:31;2.07;;;1.30;;
10341;SDS011;5216;54.602;18.356;2023-02-26T00:09:58;1.27;;;0.90;;
10341;SDS011;5216;54.602;18.356;2023-02-26T00:12:27;1.10;;;0.80;;
10341;SDS011;5216;54.602;18.356;2023-02-26T00:14:53;1.43;;;0.97;;
10341;SDS011;5216;54.602;18.356;2023-02-26T00:19:53;1.97;;;1.40;;
10341;SDS011;5216;54.602;18.356;2023-02-26T00:22:20;1.50;;;1.20;;
10341;SDS011;5216;54.602;18.356;2023-02-26T00:24:46;1.93;;;1.30;;
10341;SDS011;5216;54.602;18.356;2023-02-26T00:27:13;2.60;;;1.40;;
10341;SDS011;5216;54.602;18.356;2023-02-26T00:29:40;1.40;;;1.00;;
10341;SDS011;5216;54.602;18.356;2023-02-26T00:32:06;1.87;;;1.00;;
10341;SDS011;5216;54.602;18.356;2023-02-26T00:34:33;1.33;;;0.93;;
10341;SDS011;5216;54.602;18.356;2023-02-26T00:37:07;1.50;;;1.10;;
10341;SDS011;5216;54.602;18.356;2023-02-26T00:39:41;1.07;;;0.83;;
10341;SDS011;5216;54.602;18.356;2023-02-26T00:42:09;0.93;;;0.83;;
10341;SDS011;5216;54.602;18.356;2023-02-26T00:44:36;1.13;;;0.87;;
10341;SDS011;5216;54.602;18.356;2023-02-26T00:49:44;1.90;;;0.97;;
10341;SDS011;5216;54.602;18.356;2023-02-26T00:55:08;1.67;;;0.90;;
10341;SDS011;5216;54.602;18.356;2023-02-26T00:57:34;1.50;;;1.20;;
10341;SDS011;5216;54.602;18.356;2023-02-26T01:00:02;1.57;;;1.10;;
10341;SDS011;5216;54.602;18.356;2023-02-26T01:02:31;2.10;;;1.10;;
10341;SDS011;5216;54.602;18.356;2023-02-26T01:04:58;2.17;;;0.90;;
10341;SDS011;5216;54.602;18.356;2023-02-26T01:07:24;1.10;;;0.80;;
10341;SDS011;5216;54.602;18.356;2023-02-26T01:09:53;1.90;;;1.20;;
10341;SDS011;5216;54.602;18.356;2023-02-26T01:12:20;1.07;;;0.97;;
10341;SDS011;5216;54.602;18.356;2023-02-26T01:14:46;1.60;;;0.90;;
10341;SDS011;5216;54.602;18.356;2023-02-26T01:22:29;2.10;;;1.00;;
10341;SDS011;5216;54.602;18.356;2023-02-26T01:25:07;1.17;;;0.73;;
10341;SDS011;5216;54.602;18.356;2023-02-26T01:27:34;0.80;;;0.73;;
10341;SDS011;5216;54.602;18.356;2023-02-26T01:30:01;0.50;;;0.50;;
10341;SDS011;5216;54.602;18.356;2023-02-26T01:35:00;0.40;;;0.30;;
10341;SDS011;5216;54.602;18.356;2023-02-26T01:42:34;1.30;;;0.63;;
10341;SDS011;5216;54.602;18.356;2023-02-26T01:45:11;1.30;;;0.83;;
10341;SDS011;5216;54.602;18.356;2023-02-26T01:47:39;0.73;;;0.33;;
10341;SDS011;5216;54.602;18.356;2023-02-26T01:50:12;0.77;;;0.47;;
10341;SDS011;5216;54.602;18.356;2023-02-26T01:55:16;0.60;;;0.60;;
10341;SDS011;5216;54.602;18.356;2023-02-26T01:57:45;1.33;;;0.70;;
10341;SDS011;5216;54.602;18.356;2023-02-26T02:00:12;1.13;;;0.63;;
10341;SDS011;5216;54.602;18.356;2023-02-26T02:02:51;0.97;;;0.60;;
10341;SDS011;5216;54.602;18.356;2023-02-26T02:05:20;0.80;;;0.60;;
10341;SDS011;5216;54.602;18.356;2023-02-26T02:07:47;1.70;;;0.63;;
10341;SDS011;5216;54.602;18.356;2023-02-26T02:10:15;1.27;;;0.70;;
10341;SDS011;5216;54.602;18.356;2023-02-26T02:23:10;1.80;;;0.90;;
10341;SDS011;5216;54.602;18.356;2023-02-26T02:31:04;1.40;;;0.50;;
10341;SDS011;5216;54.602;18.356;2023-02-26T02:39:06;1.40;;;0.60;;
10341;SDS011;5216;54.602;18.356;2023-02-26T02:41:45;0.93;;;0.50;;
10341;SDS011;5216;54.602;18.356;2023-02-26T02:44:14;2.37;;;0.70;;
10341;SDS011;5216;54.602;18.356;2023-02-26T02:46:42;1.33;;;0.70;;
10341;SDS011;5216;54.602;18.356;2023-02-26T02:52:00;0.67;;;0.53;;
10341;SDS011;5216;54.602;18.356;2023-02-26T02:54:42;1.17;;;0.80;;
10341;SDS011;5216;54.602;18.356;2023-02-26T02:57:12;1.53;;;0.70;;
10341;SDS011;5216;54.602;18.356;2023-02-26T02:59:48;1.83;;;0.90;;
10341;SDS011;5216;54.602;18.356;2023-02-26T03:02:20;2.30;;;1.07;;
10341;SDS011;5216;54.602;18.356;2023-02-26T03:04:46;1.57;;;0.70;;
10341;SDS011;5216;54.602;18.356;2023-02-26T03:07:13;1.37;;;0.87;;
10341;SDS011;5216;54.602;18.356;2023-02-26T03:09:40;2.03;;;0.90;;
10341;SDS011;5216;54.602;18.356;2023-02-26T03:12:07;1.60;;;0.90;;
10341;SDS011;5216;54.602;18.356;2023-02-26T03:14:34;1.60;;;0.80;;
10341;SDS011;5216;54.602;18.356;2023-02-26T03:22:31;2.03;;;0.87;;
10341;SDS011;5216;54.602;18.356;2023-02-26T03:30:16;1.27;;;0.70;;
10341;SDS011;5216;54.602;18.356;2023-02-26T03:32:48;2.33;;;1.07;;
10341;SDS011;5216;54.602;18.356;2023-02-26T03:35:17;2.00;;;0.90;;
10341;SDS011;5216;54.602;18.356;2023-02-26T03:37:49;2.73;;;1.33;;
10341;SDS011;5216;54.602;18.356;2023-02-26T03:40:18;2.20;;;1.07;;
10341;SDS011;5216;54.602;18.356;2023-02-26T03:42:58;1.33;;;0.97;;
10341;SDS011;5216;54.602;18.356;2023-02-26T03:45:27;2.97;;;1.10;;
10341;SDS011;5216;54.602;18.356;2023-02-26T03:48:06;2.33;;;0.80;;
10341;SDS011;5216;54.602;18.356;2023-02-26T03:50:50;0.93;;;0.80;;
10341;SDS011;5216;54.602;18.356;2023-02-26T03:53:19;2.77;;;0.77;;
10341;SDS011;5216;54.602;18.356;2023-02-26T03:55:49;1.40;;;0.80;;
10341;SDS011;5216;54.602;18.356;2023-02-26T03:58:18;1.00;;;0.63;;
10341;SDS011;5216;54.602;18.356;2023-02-26T04:00:45;2.20;;;1.10;;
10341;SDS011;5216;54.602;18.356;2023-02-26T04:03:21;2.50;;;0.80;;
10341;SDS011;5216;54.602;18.356;2023-02-26T04:05:49;2.70;;;0.90;;
10341;SDS011;5216;54.602;18.356;2023-02-26T04:08:17;2.60;;;0.90;;
10341;SDS011;5216;54.602;18.356;2023-02-26T04:10:46;1.30;;;0.73;;
10341;SDS011;5216;54.602;18.356;2023-02-26T04:13:13;2.60;;;0.70;;
10341;SDS011;5216;54.602;18.356;2023-02-26T04:15:40;1.20;;;0.70;;
10341;SDS011;5216;54.602;18.356;2023-02-26T04:18:07;0.80;;;0.63;;
10341;SDS011;5216;54.602;18.356;2023-02-26T04:20:33;1.30;;;0.70;;
10341;SDS011;5216;54.602;18.356;2023-02-26T04:23:00;2.03;;;0.93;;
10341;SDS011;5216;54.602;18.356;2023-02-26T04:25:45;2.60;;;1.00;;
10341;SDS011;5216;54.602;18.356;2023-02-26T04:28:11;2.00;;;1.10;;
10341;SDS011;5216;54.602;18.356;2023-02-26T04:30:38;2.20;;;0.93;;
10341;SDS011;5216;54.602;18.356;2023-02-26T04:33:23;1.23;;;0.77;;
10341;SDS011;5216;54.602;18.356;2023-02-26T04:35:52;1.70;;;1.00;;
10341;SDS011;5216;54.602;18.356;2023-02-26T04:38:18;0.90;;;0.60;;
10341;SDS011;5216;54.602;18.356;2023-02-26T04:40:45;1.93;;;0.80;;
10341;SDS011;5216;54.602;18.356;2023-02-26T04:43:12;1.33;;;0.60;;
10341;SDS011;5216;54.602;18.356;2023-02-26T04:45:38;1.63;;;1.00;;
10341;SDS011;5216;54.602;18.356;2023-02-26T04:48:05;1.67;;;0.83;;
10341;SDS011;5216;54.602;18.356;2023-02-26T04:50:31;1.73;;;0.80;;
10341;SDS011;5216;54.602;18.356;2023-02-26T04:52:58;1.20;;;0.80;;
10341;SDS011;5216;54.602;18.356;2023-02-26T04:55:24;1.80;;;1.00;;
10341;SDS011;5216;54.602;18.356;2023-02-26T04:57:51;2.33;;;0.87;;
10341;SDS011;5216;54.602;18.356;2023-02-26T05:00:18;3.13;;;0.80;;
10341;SDS011;5216;54.602;18.356;2023-02-26T05:02:45;2.53;;;0.97;;
10341;SDS011;5216;54.602;18.356;2023-02-26T05:05:12;2.87;;;0.90;;
10341;SDS011;5216;54.602;18.356;2023-02-26T05:07:38;1.50;;;0.70;;
10341;SDS011;5216;54.602;18.356;2023-02-26T05:10:05;1.13;;;0.70;;
10341;SDS011;5216;54.602;18.356;2023-02-26T05:12:32;1.77;;;1.00;;
10341;SDS011;5216;54.602;18.356;2023-02-26T05:14:58;1.57;;;0.70;;
10341;SDS011;5216;54.602;18.356;2023-02-26T05:17:25;2.27;;;0.90;;
10341;SDS011;5216;54.602;18.356;2023-02-26T05:19:52;1.23;;;0.70;;
10341;SDS011;5216;54.602;18.356;2023-02-26T05:22:18;2.47;;;0.80;;
10341;SDS011;5216;54.602;18.356;2023-02-26T05:24:45;1.57;;;0.83;;
10341;SDS011;5216;54.602;18.356;2023-02-26T05:27:11;2.00;;;1.13;;
10341;SDS011;5216;54.602;18.356;2023-02-26T05:29:44;1.53;;;0.80;;
10341;SDS011;5216;54.602;18.356;2023-02-26T05:32:13;1.30;;;0.80;;
10341;SDS011;5216;54.602;18.356;2023-02-26T05:34:40;1.40;;;0.77;;
10341;SDS011;5216;54.602;18.356;2023-02-26T05:37:06;2.03;;;0.90;;
10341;SDS011;5216;54.602;18.356;2023-02-26T05:39:33;1.40;;;1.00;;
10341;SDS011;5216;54.602;18.356;2023-02-26T05:41:59;1.80;;;0.90;;
10341;SDS011;5216;54.602;18.356;2023-02-26T05:44:26;2.20;;;0.87;;
10341;SDS011;5216;54.602;18.356;2023-02-26T05:46:53;2.40;;;1.10;;
10341;SDS011;5216;54.602;18.356;2023-02-26T05:49:19;2.53;;;1.13;;
10341;SDS011;5216;54.602;18.356;2023-02-26T05:51:46;2.23;;;1.30;;
10341;SDS011;5216;54.602;18.356;2023-02-26T05:54:12;2.13;;;1.17;;
10341;SDS011;5216;54.602;18.356;2023-02-26T05:56:39;2.80;;;1.10;;
10341;SDS011;5216;54.602;18.356;2023-02-26T05:59:06;2.33;;;1.30;;
10341;SDS011;5216;54.602;18.356;2023-02-26T06:01:32;2.00;;;1.13;;
10341;SDS011;5216;54.602;18.356;2023-02-26T06:03:59;1.90;;;0.90;;
10341;SDS011;5216;54.602;18.356;2023-02-26T06:06:26;1.47;;;0.90;;
10341;SDS011;5216;54.602;18.356;2023-02-26T06:08:52;3.13;;;1.33;;
10341;SDS011;5216;54.602;18.356;2023-02-26T06:11:19;2.43;;;1.33;;
10341;SDS011;5216;54.602;18.356;2023-02-26T06:13:46;2.20;;;1.10;;
10341;SDS011;5216;54.602;18.356;2023-02-26T06:16:12;2.23;;;1.00;;
10341;SDS011;5216;54.602;18.356;2023-02-26T06:18:39;1.27;;;0.80;;
10341;SDS011;5216;54.602;18.356;2023-02-26T06:21:05;1.73;;;1.00;;
10341;SDS011;5216;54.602;18.356;2023-02-26T06:23:32;1.63;;;1.00;;
10341;SDS011;5216;54.602;18.356;2023-02-26T06:25:59;3.23;;;1.30;;
10341;SDS011;5216;54.602;18.356;2023-02-26T06:28:25;2.50;;;0.80;;
10341;SDS011;5216;54.602;18.356;2023-02-26T06:30:52;1.67;;;0.90;;
10341;SDS011;5216;54.602;18.356;2023-02-26T06:33:19;3.30;;;1.40;;
10341;SDS011;5216;54.602;18.356;2023-02-26T06:35:46;1.57;;;0.90;;
10341;SDS011;5216;54.602;18.356;2023-02-26T06:38:18;2.03;;;1.20;;
10341;SDS011;5216;54.602;18.356;2023-02-26T06:40:46;2.00;;;0.90;;
10341;SDS011;5216;54.602;18.356;2023-02-26T06:43:12;2.77;;;1.37;;
10341;SDS011;5216;54.602;18.356;2023-02-26T06:45:39;2.20;;;1.50;;
10341;SDS011;5216;54.602;18.356;2023-02-26T06:48:06;2.87;;;1.13;;
10341;SDS011;5216;54.602;18.356;2023-02-26T06:50:32;1.37;;;0.93;;
10341;SDS011;5216;54.602;18.356;2023-02-26T06:52:59;2.17;;;1.20;;
10341;SDS011;5216;54.602;18.356;2023-02-26T06:55:25;2.03;;;1.07;;
10341;SDS011;5216;54.602;18.356;2023-02-26T06:57:53;2.87;;;1.20;;
10341;SDS011;5216;54.602;18.356;2023-02-26T07:00:20;1.30;;;0.83;;
10341;SDS011;5216;54.602;18.356;2023-02-26T07:02:53;2.70;;;1.27;;
10341;SDS011;5216;54.602;18.356;2023-02-26T07:05:21;2.23;;;1.17;;
10341;SDS011;5216;54.602;18.356;2023-02-26T07:07:47;1.93;;;1.20;;
10341;SDS011;5216;54.602;18.356;2023-02-26T07:10:14;2.37;;;1.10;;
10341;SDS011;5216;54.602;18.356;2023-02-26T07:12:40;2.30;;;1.27;;
10341;SDS011;5216;54.602;18.356;2023-02-26T07:15:07;1.53;;;1.10;;
10341;SDS011;5216;54.602;18.356;2023-02-26T07:17:34;2.83;;;1.30;;
10341;SDS011;5216;54.602;18.356;2023-02-26T07:20:00;3.10;;;1.50;;
10341;SDS011;5216;54.602;18.356;2023-02-26T07:22:31;1.97;;;1.30;;
10341;SDS011;5216;54.602;18.356;2023-02-26T07:24:59;1.50;;;1.00;;
10341;SDS011;5216;54.602;18.356;2023-02-26T07:27:25;2.37;;;1.37;;
10341;SDS011;5216;54.602;18.356;2023-02-26T07:29:52;2.63;;;1.70;;
10341;SDS011;5216;54.602;18.356;2023-02-26T07:32:19;3.10;;;2.00;;
10341;SDS011;5216;54.602;18.356;2023-02-26T07:34:48;2.00;;;1.47;;
10341;SDS011;5216;54.602;18.356;2023-02-26T07:37:31;2.43;;;1.60;;
10341;SDS011;5216;54.602;18.356;2023-02-26T07:51:25;2.13;;;1.30;;
10341;SDS011;5216;54.602;18.356;2023-02-26T07:53:52;2.60;;;1.30;;
10341;SDS011;5216;54.602;18.356;2023-02-26T07:56:18;2.57;;;1.30;;
10341;SDS011;5216;54.602;18.356;2023-02-26T07:58:45;1.97;;;1.33;;
10341;SDS011;5216;54.602;18.356;2023-02-26T08:01:11;2.73;;;1.50;;
10341;SDS011;5216;54.602;18.356;2023-02-26T08:03:56;3.33;;;1.37;;
10341;SDS011;5216;54.602;18.356;2023-02-26T08:06:23;2.60;;;1.30;;
10341;SDS011;5216;54.602;18.356;2023-02-26T08:08:50;3.03;;;1.40;;
10341;SDS011;5216;54.602;18.356;2023-02-26T08:11:17;5.17;;;1.57;;
10341;SDS011;5216;54.602;18.356;2023-02-26T08:13:43;2.20;;;1.43;;
10341;SDS011;5216;54.602;18.356;2023-02-26T08:16:10;1.67;;;1.33;;
10341;SDS011;5216;54.602;18.356;2023-02-26T08:18:36;2.27;;;1.57;;
10341;SDS011;5216;54.602;18.356;2023-02-26T08:21:03;2.37;;;1.63;;
10341;SDS011;5216;54.602;18.356;2023-02-26T08:23:30;2.50;;;1.70;;
10341;SDS011;5216;54.602;18.356;2023-02-26T08:26:04;2.77;;;1.70;;
10341;SDS011;5216;54.602;18.356;2023-02-26T08:28:31;2.57;;;1.63;;
10341;SDS011;5216;54.602;18.356;2023-02-26T08:42:40;3.97;;;1.90;;
10341;SDS011;5216;54.602;18.356;2023-02-26T08:45:07;3.30;;;1.80;;
10341;SDS011;5216;54.602;18.356;2023-02-26T08:47:34;3.00;;;1.77;;
10341;SDS011;5216;54.602;18.356;2023-02-26T08:50:08;3.60;;;2.30;;
10341;SDS011;5216;54.602;18.356;2023-02-26T08:52:35;4.07;;;2.20;;
10341;SDS011;5216;54.602;18.356;2023-02-26T08:55:01;4.37;;;2.50;;
10341;SDS011;5216;54.602;18.356;2023-02-26T08:57:28;3.17;;;2.00;;
10341;SDS011;5216;54.602;18.356;2023-02-26T08:59:54;1.67;;;1.40;;
10341;SDS011;5216;54.602;18.356;2023-02-26T09:02:21;2.37;;;1.83;;
10341;SDS011;5216;54.602;18.356;2023-02-26T09:08:16;3.50;;;2.20;;
10341;SDS011;5216;54.602;18.356;2023-02-26T09:10:42;4.27;;;2.27;;
10341;SDS011;5216;54.602;18.356;2023-02-26T09:13:09;3.83;;;2.20;;
10341;SDS011;5216;54.602;18.356;2023-02-26T09:15:35;1.97;;;1.50;;
10341;SDS011;5216;54.602;18.356;2023-02-26T09:18:02;2.47;;;1.33;;
10341;SDS011;5216;54.602;18.356;2023-02-26T09:27:21;2.47;;;1.33;;
10341;SDS011;5216;54.602;18.356;2023-02-26T09:29:48;4.03;;;1.80;;
10341;SDS011;5216;54.602;18.356;2023-02-26T09:32:14;4.03;;;1.80;;
10341;SDS011;5216;54.602;18.356;2023-02-26T09:34:41;2.37;;;1.60;;
10341;SDS011;5216;54.602;18.356;2023-02-26T09:37:08;2.20;;;1.40;;
10341;SDS011;5216;54.602;18.356;2023-02-26T09:39:34;2.60;;;1.77;;
10341;SDS011;5216;54.602;18.356;2023-02-26T09:47:42;3.93;;;1.93;;
10341;SDS011;5216;54.602;18.356;2023-02-26T09:50:22;2.80;;;1.67;;
10341;SDS011;5216;54.602;18.356;2023-02-26T09:58:31;2.30;;;1.60;;
10341;SDS011;5216;54.602;18.356;2023-02-26T10:03:33;3.20;;;1.50;;
10341;SDS011;5216;54.602;18.356;2023-02-26T10:11:22;1.53;;;1.07;;
10341;SDS011;5216;54.602;18.356;2023-02-26T10:13:53;6.33;;;1.60;;
10341;SDS011;5216;54.602;18.356;2023-02-26T10:16:26;3.10;;;2.37;;
10341;SDS011;5216;54.602;18.356;2023-02-26T10:25:36;2.30;;;1.40;;
10341;SDS011;5216;54.602;18.356;2023-02-26T10:31:00;5.93;;;1.50;;
10341;SDS011;5216;54.602;18.356;2023-02-26T10:41:05;3.83;;;1.90;;
10341;SDS011;5216;54.602;18.356;2023-02-26T10:43:40;2.67;;;1.37;;
10341;SDS011;5216;54.602;18.356;2023-02-26T10:51:42;4.40;;;2.23;;
10341;SDS011;5216;54.602;18.356;2023-02-26T10:56:51;2.17;;;1.70;;
10341;SDS011;5216;54.602;18.356;2023-02-26T10:59:18;2.10;;;1.10;;
10341;SDS011;5216;54.602;18.356;2023-02-26T11:01:45;1.83;;;0.97;;
10341;SDS011;5216;54.602;18.356;2023-02-26T11:04:16;2.60;;;1.37;;
10341;SDS011;5216;54.602;18.356;2023-02-26T11:06:50;1.57;;;0.70;;
10341;SDS011;5216;54.602;18.356;2023-02-26T11:09:28;2.83;;;1.50;;
10341;SDS011;5216;54.602;18.356;2023-02-26T11:14:32;1.67;;;1.13;;
10341;SDS011;5216;54.602;18.356;2023-02-26T11:17:03;2.00;;;1.47;;
10341;SDS011;5216;54.602;18.356;2023-02-26T11:19:32;1.33;;;0.90;;
10341;SDS011;5216;54.602;18.356;2023-02-26T11:22:01;2.10;;;1.30;;
10341;SDS011;5216;54.602;18.356;2023-02-26T11:24:42;1.70;;;1.33;;
10341;SDS011;5216;54.602;18.356;2023-02-26T11:27:25;2.30;;;1.57;;
10341;SDS011;5216;54.602;18.356;2023-02-26T11:29:53;2.47;;;1.70;;
10341;SDS011;5216;54.602;18.356;2023-02-26T11:32:21;3.40;;;2.67;;
10341;SDS011;5216;54.602;18.356;2023-02-26T11:34:49;4.13;;;1.70;;
10341;SDS011;5216;54.602;18.356;2023-02-26T11:37:17;2.80;;;1.63;;
10341;SDS011;5216;54.602;18.356;2023-02-26T11:39:44;2.27;;;1.90;;
10341;SDS011;5216;54.602;18.356;2023-02-26T11:45:41;2.23;;;1.43;;
10341;SDS011;5216;54.602;18.356;2023-02-26T11:48:14;1.50;;;1.00;;
10341;SDS011;5216;54.602;18.356;2023-02-26T11:50:42;1.70;;;1.23;;
10341;SDS011;5216;54.602;18.356;2023-02-26T11:56:00;2.73;;;1.70;;
10341;SDS011;5216;54.602;18.356;2023-02-26T11:58:28;2.03;;;1.43;;
10341;SDS011;5216;54.602;18.356;2023-02-26T12:00:57;1.47;;;1.00;;
10341;SDS011;5216;54.602;18.356;2023-02-26T12:03:28;2.30;;;1.57;;
10341;SDS011;5216;54.602;18.356;2023-02-26T12:05:57;3.27;;;1.67;;
10341;SDS011;5216;54.602;18.356;2023-02-26T12:08:25;4.97;;;1.73;;
10341;SDS011;5216;54.602;18.356;2023-02-26T12:36:21;2.00;;;1.37;;
10341;SDS011;5216;54.602;18.356;2023-02-26T12:47:15;1.70;;;1.07;;
10341;SDS011;5216;54.602;18.356;2023-02-26T12:57:37;1.70;;;1.30;;
10341;SDS011;5216;54.602;18.356;2023-02-26T13:00:17;1.73;;;1.30;;
10341;SDS011;5216;54.602;18.356;2023-02-26T13:08:05;1.90;;;1.30;;
10341;SDS011;5216;54.602;18.356;2023-02-26T13:20:46;1.87;;;1.50;;
10341;SDS011;5216;54.602;18.356;2023-02-26T13:23:17;2.73;;;2.10;;
10341;SDS011;5216;54.602;18.356;2023-02-26T13:37:17;2.17;;;1.30;;
10341;SDS011;5216;54.602;18.356;2023-02-26T13:51:04;1.27;;;1.10;;
10341;SDS011;5216;54.602;18.356;2023-02-26T13:53:34;1.47;;;1.10;;
10341;SDS011;5216;54.602;18.356;2023-02-26T13:56:05;2.13;;;1.60;;
10341;SDS011;5216;54.602;18.356;2023-02-26T13:58:35;3.00;;;2.20;;
10341;SDS011;5216;54.602;18.356;2023-02-26T14:03:49;2.10;;;1.50;;
10341;SDS011;5216;54.602;18.356;2023-02-26T14:09:03;1.63;;;1.10;;
10341;SDS011;5216;54.602;18.356;2023-02-26T14:16:40;1.37;;;1.00;;
10341;SDS011;5216;54.602;18.356;2023-02-26T14:19:19;1.20;;;1.00;;
10341;SDS011;5216;54.602;18.356;2023-02-26T14:21:56;2.00;;;1.10;;
10341;SDS011;5216;54.602;18.356;2023-02-26T14:24:36;1.90;;;1.40;;
10341;SDS011;5216;54.602;18.356;2023-02-26T14:27:07;1.67;;;1.13;;
10341;SDS011;5216;54.602;18.356;2023-02-26T14:29:38;2.03;;;1.20;;
10341;SDS011;5216;54.602;18.356;2023-02-26T14:34:40;2.33;;;1.60;;
10341;SDS011;5216;54.602;18.356;2023-02-26T14:37:10;3.10;;;1.70;;
10341;SDS011;5216;54.602;18.356;2023-02-26T14:39:39;3.70;;;2.70;;
10341;SDS011;5216;54.602;18.356;2023-02-26T14:45:05;11.00;;;7.97;;
10341;SDS011;5216;54.602;18.356;2023-02-26T14:47:33;16.23;;;7.97;;
10341;SDS011;5216;54.602;18.356;2023-02-26T14:50:04;14.87;;;8.67;;
10341;SDS011;5216;54.602;18.356;2023-02-26T14:52:35;15.53;;;9.03;;
10341;SDS011;5216;54.602;18.356;2023-02-26T14:58:00;14.07;;;10.30;;
10341;SDS011;5216;54.602;18.356;2023-02-26T15:17:32;3.07;;;2.17;;
10341;SDS011;5216;54.602;18.356;2023-02-26T15:20:07;3.77;;;2.63;;
10341;SDS011;5216;54.602;18.356;2023-02-26T15:29:52;3.90;;;1.70;;
10341;SDS011;5216;54.602;18.356;2023-02-26T15:32:27;1.53;;;1.10;;
10341;SDS011;5216;54.602;18.356;2023-02-26T15:35:02;3.67;;;2.40;;
10341;SDS011;5216;54.602;18.356;2023-02-26T15:41:31;1.60;;;0.90;;
10341;SDS011;5216;54.602;18.356;2023-02-26T15:44:03;2.90;;;0.90;;
10341;SDS011;5216;54.602;18.356;2023-02-26T15:46:31;1.87;;;0.90;;
10341;SDS011;5216;54.602;18.356;2023-02-26T15:49:03;1.97;;;1.50;;
10341;SDS011;5216;54.602;18.356;2023-02-26T15:51:30;3.77;;;2.67;;
10341;SDS011;5216;54.602;18.356;2023-02-26T15:53:58;2.93;;;1.73;;
10341;SDS011;5216;54.602;18.356;2023-02-26T15:56:38;3.00;;;1.90;;
10341;SDS011;5216;54.602;18.356;2023-02-26T15:59:08;5.37;;;2.97;;
10341;SDS011;5216;54.602;18.356;2023-02-26T16:01:35;3.70;;;2.80;;
10341;SDS011;5216;54.602;18.356;2023-02-26T16:04:07;6.80;;;4.83;;
10341;SDS011;5216;54.602;18.356;2023-02-26T16:06:37;8.43;;;5.53;;
10341;SDS011;5216;54.602;18.356;2023-02-26T16:09:06;2.63;;;2.13;;
10341;SDS011;5216;54.602;18.356;2023-02-26T16:11:37;5.00;;;3.40;;
10341;SDS011;5216;54.602;18.356;2023-02-26T16:14:05;3.63;;;2.23;;
10341;SDS011;5216;54.602;18.356;2023-02-26T16:16:52;3.70;;;2.10;;
10341;SDS011;5216;54.602;18.356;2023-02-26T16:21:54;5.13;;;3.27;;
10341;SDS011;5216;54.602;18.356;2023-02-26T16:24:21;5.40;;;3.47;;
10341;SDS011;5216;54.602;18.356;2023-02-26T16:26:52;6.50;;;3.90;;
10341;SDS011;5216;54.602;18.356;2023-02-26T16:36:13;2.70;;;2.50;;
10341;SDS011;5216;54.602;18.356;2023-02-26T16:38:45;5.40;;;4.57;;
10341;SDS011;5216;54.602;18.356;2023-02-26T16:41:21;4.97;;;4.43;;
10341;SDS011;5216;54.602;18.356;2023-02-26T16:43:50;4.83;;;4.23;;
10341;SDS011;5216;54.602;18.356;2023-02-26T16:46:35;3.90;;;3.27;;
10341;SDS011;5216;54.602;18.356;2023-02-26T16:49:04;5.93;;;5.07;;
10341;SDS011;5216;54.602;18.356;2023-02-26T16:51:33;12.97;;;10.93;;
10341;SDS011;5216;54.602;18.356;2023-02-26T16:54:01;8.87;;;6.70;;
10341;SDS011;5216;54.602;18.356;2023-02-26T16:56:31;5.17;;;3.50;;
10341;SDS011;5216;54.602;18.356;2023-02-26T17:01:28;4.90;;;3.30;;
10341;SDS011;5216;54.602;18.356;2023-02-26T17:04:02;3.67;;;2.60;;
10341;SDS011;5216;54.602;18.356;2023-02-26T17:06:29;5.20;;;2.73;;
10341;SDS011;5216;54.602;18.356;2023-02-26T17:09:01;4.13;;;2.83;;
10341;SDS011;5216;54.602;18.356;2023-02-26T17:11:49;4.83;;;2.80;;
10341;SDS011;5216;54.602;18.356;2023-02-26T17:17:26;6.90;;;4.53;;
10341;SDS011;5216;54.602;18.356;2023-02-26T17:19:53;15.77;;;9.97;;
10341;SDS011;5216;54.602;18.356;2023-02-26T17:22:26;11.80;;;8.60;;
10341;SDS011;5216;54.602;18.356;2023-02-26T17:24:53;8.80;;;6.10;;
10341;SDS011;5216;54.602;18.356;2023-02-26T17:27:30;4.03;;;2.80;;
10341;SDS011;5216;54.602;18.356;2023-02-26T17:29:58;6.10;;;3.20;;
10341;SDS011;5216;54.602;18.356;2023-02-26T17:32:26;4.40;;;2.87;;
10341;SDS011;5216;54.602;18.356;2023-02-26T17:34:53;4.20;;;2.47;;
10341;SDS011;5216;54.602;18.356;2023-02-26T17:37:20;3.80;;;2.50;;
10341;SDS011;5216;54.602;18.356;2023-02-26T17:39:48;5.63;;;3.40;;
10341;SDS011;5216;54.602;18.356;2023-02-26T17:42:24;5.20;;;3.20;;
10341;SDS011;5216;54.602;18.356;2023-02-26T17:45:46;2.93;;;1.90;;
10341;SDS011;5216;54.602;18.356;2023-02-26T17:48:22;3.77;;;2.77;;
10341;SDS011;5216;54.602;18.356;2023-02-26T17:58:39;4.47;;;2.20;;
10341;SDS011;5216;54.602;18.356;2023-02-26T18:01:06;2.73;;;1.90;;
10341;SDS011;5216;54.602;18.356;2023-02-26T18:03:33;3.67;;;2.50;;
10341;SDS011;5216;54.602;18.356;2023-02-26T18:06:03;6.30;;;3.67;;
10341;SDS011;5216;54.602;18.356;2023-02-26T18:08:30;3.17;;;2.30;;
10341;SDS011;5216;54.602;18.356;2023-02-26T18:14:56;4.37;;;2.77;;
10341;SDS011;5216;54.602;18.356;2023-02-26T18:17:24;2.37;;;1.70;;
10341;SDS011;5216;54.602;18.356;2023-02-26T18:20:14;3.87;;;2.80;;
10341;SDS011;5216;54.602;18.356;2023-02-26T18:22:41;4.60;;;3.67;;
10341;SDS011;5216;54.602;18.356;2023-02-26T18:28:23;4.17;;;2.53;;
10341;SDS011;5216;54.602;18.356;2023-02-26T18:30:50;4.50;;;3.17;;
10341;SDS011;5216;54.602;18.356;2023-02-26T18:33:18;4.73;;;3.30;;
10341;SDS011;5216;54.602;18.356;2023-02-26T18:35:45;3.70;;;2.63;;
10341;SDS011;5216;54.602;18.356;2023-02-26T18:38:14;4.27;;;2.83;;
10341;SDS011;5216;54.602;18.356;2023-02-26T18:40:41;3.10;;;2.47;;
10341;SDS011;5216;54.602;18.356;2023-02-26T18:43:08;2.93;;;2.63;;
10341;SDS011;5216;54.602;18.356;2023-02-26T18:45:38;3.97;;;2.37;;
10341;SDS011;5216;54.602;18.356;2023-02-26T18:48:05;5.03;;;3.07;;
10341;SDS011;5216;54.602;18.356;2023-02-26T18:50:31;5.03;;;4.63;;
10341;SDS011;5216;54.602;18.356;2023-02-26T18:52:58;5.43;;;4.93;;
10341;SDS011;5216;54.602;18.356;2023-02-26T18:55:43;6.37;;;5.70;;
10341;SDS011;5216;54.602;18.356;2023-02-26T18:58:13;5.53;;;4.00;;
10341;SDS011;5216;54.602;18.356;2023-02-26T19:00:40;3.60;;;3.30;;
10341;SDS011;5216;54.602;18.356;2023-02-26T19:03:07;4.00;;;3.10;;
10341;SDS011;5216;54.602;18.356;2023-02-26T19:05:34;7.93;;;5.77;;
10341;SDS011;5216;54.602;18.356;2023-02-26T19:08:07;7.10;;;4.80;;
10341;SDS011;5216;54.602;18.356;2023-02-26T19:10:34;4.77;;;3.47;;
10341;SDS011;5216;54.602;18.356;2023-02-26T19:13:01;4.83;;;3.73;;
10341;SDS011;5216;54.602;18.356;2023-02-26T19:15:28;6.47;;;3.83;;
10341;SDS011;5216;54.602;18.356;2023-02-26T19:17:55;4.73;;;3.03;;
10341;SDS011;5216;54.602;18.356;2023-02-26T19:20:22;5.17;;;3.30;;
10341;SDS011;5216;54.602;18.356;2023-02-26T19:22:48;6.33;;;3.87;;
10341;SDS011;5216;54.602;18.356;2023-02-26T19:25:15;6.80;;;4.00;;
10341;SDS011;5216;54.602;18.356;2023-02-26T19:27:42;4.67;;;2.90;;
10341;SDS011;5216;54.602;18.356;2023-02-26T19:30:08;4.03;;;2.67;;
10341;SDS011;5216;54.602;18.356;2023-02-26T19:32:35;5.27;;;3.00;;
10341;SDS011;5216;54.602;18.356;2023-02-26T19:35:02;7.00;;;5.37;;
10341;SDS011;5216;54.602;18.356;2023-02-26T19:37:29;7.20;;;5.27;;
10341;SDS011;5216;54.602;18.356;2023-02-26T19:39:56;5.80;;;3.17;;
10341;SDS011;5216;54.602;18.356;2023-02-26T19:42:23;6.27;;;4.00;;
10341;SDS011;5216;54.602;18.356;2023-02-26T19:45:05;5.03;;;3.90;;
10341;SDS011;5216;54.602;18.356;2023-02-26T19:47:32;5.37;;;3.30;;
10341;SDS011;5216;54.602;18.356;2023-02-26T19:49:58;6.53;;;3.70;;
10341;SDS011;5216;54.602;18.356;2023-02-26T19:52:25;5.17;;;3.90;;
10341;SDS011;5216;54.602;18.356;2023-02-26T19:54:53;4.33;;;3.53;;
10341;SDS011;5216;54.602;18.356;2023-02-26T19:57:23;4.70;;;3.30;;
10341;SDS011;5216;54.602;18.356;2023-02-26T19:59:49;4.70;;;3.00;;
10341;SDS011;5216;54.602;18.356;2023-02-26T20:02:16;6.43;;;3.50;;